Bookmark and Share
Track history (hours):
 

Chemical Pioneer

More information available from US FCC via Universal Licensing System and Coast Guard Vessel Documentation Center.

Last reported at 2014-Apr-23 03:26 UTC. Time now 2014-Apr-25 06:26 UTC.
Position N 25°00' W 080°12'.

Type: Tanker. MMSI: 366032000.

NotesDate/timePositionNaut miles runAvg speedWind from/ knotsBaromVisibWave heightAir tempDewpointWater temp
2014-Apr-23 03:26N 25°00' W 080°12'1314.5
2014-Apr-23 02:33N 25°12' W 080°06'1414.2
2014-Apr-23 01:33N 25°26' W 080°02'1515.0
2014-Apr-23 00:33N 25°41' W 080°01'1515.0
2014-Apr-22 23:33N 25°56' W 080°00'1515.2
2014-Apr-22 22:33N 26°11' W 079°58'1615.6
2014-Apr-22 21:33N 26°27' W 079°57'1615.8
2014-Apr-22 20:33N 26°42' W 079°56'1515.4
2014-Apr-22 19:33N 26°58' W 079°56'1515.1
2014-Apr-22 18:33N 27°13' W 079°58'1616.4
2014-Apr-22 17:33N 27°29' W 080°01'  
2014-Apr-19 10:28N 39°48' W 075°24'0 0.1
2014-Apr-19 08:25N 39°49' W 075°24'0 0.0
2014-Apr-19 01:25N 39°48' W 075°24'0 0.0
2014-Apr-18 23:22N 39°48' W 075°24'  
2014-Apr-14 09:33N 38°48' W 074°57'8 8.5
2014-Apr-14 08:33N 38°48' W 074°46'88 8.8
2014-Apr-13 22:30N 39°05' W 072°55'11 8.4
2014-Apr-13 21:15N 39°12' W 072°44'6 8.4
2014-Apr-13 20:33N 39°14' W 072°37'9 8.6
2014-Apr-13 19:31N 39°19' W 072°27'7 7.7
2014-Apr-13 18:33N 39°23' W 072°19'8 7.8
2014-Apr-13 17:33N 39°29' W 072°13'6 5.6
2014-Apr-13 16:33N 39°32' W 072°19'6 5.6
2014-Apr-13 15:33N 39°37' W 072°22'6 6.4
2014-Apr-13 14:33N 39°41' W 072°28'6 5.7
2014-Apr-13 13:33N 39°36' W 072°30'8 8.4
2014-Apr-13 12:33N 39°29' W 072°22'8 8.0
2014-Apr-13 11:34N 39°27' W 072°12'1 1.0
2014-Apr-13 10:33N 39°27' W 072°14'3 3.1
2014-Apr-13 09:33N 39°29' W 072°17'3 2.9
2014-Apr-13 08:33N 39°31' W 072°20'3 3.0
2014-Apr-13 07:31N 39°33' W 072°23'3 2.8
2014-Apr-13 06:31N 39°35' W 072°26'3 3.0
2014-Apr-13 05:33N 39°36' W 072°29'3 3.3
2014-Apr-13 04:33N 39°39' W 072°32'3 3.3
2014-Apr-13 03:33N 39°41' W 072°35'  

Dump ship's entire track history

sailing weather and tide predictions

Chemical Pioneer — KAFO — position and weather